sensor_id;sensor_type;location;lat;lon;timestamp;P1;durP1;ratioP1;P2;durP2;ratioP2
12591;SDS011;6361;52.120;5.108;2024-03-23T00:52:45;26.42;;;6.35;;
12591;SDS011;6361;52.120;5.108;2024-03-23T00:55:11;30.45;;;6.47;;
12591;SDS011;6361;52.120;5.108;2024-03-23T00:57:37;31.08;;;6.30;;
12591;SDS011;6361;52.120;5.108;2024-03-23T01:00:02;26.40;;;6.07;;
12591;SDS011;6361;52.120;5.108;2024-03-23T01:02:28;21.50;;;6.10;;
12591;SDS011;6361;52.120;5.108;2024-03-23T01:04:53;31.67;;;6.75;;
12591;SDS011;6361;52.120;5.108;2024-03-23T01:07:19;27.17;;;6.82;;
12591;SDS011;6361;52.120;5.108;2024-03-23T01:09:44;21.67;;;5.85;;
12591;SDS011;6361;52.120;5.108;2024-03-23T01:12:09;27.75;;;6.43;;
12591;SDS011;6361;52.120;5.108;2024-03-23T01:14:35;27.90;;;5.80;;
12591;SDS011;6361;52.120;5.108;2024-03-23T01:17:01;30.95;;;6.32;;
12591;SDS011;6361;52.120;5.108;2024-03-23T01:19:27;26.25;;;6.70;;
12591;SDS011;6361;52.120;5.108;2024-03-23T01:21:52;29.58;;;6.10;;
12591;SDS011;6361;52.120;5.108;2024-03-23T01:24:17;29.65;;;6.55;;
12591;SDS011;6361;52.120;5.108;2024-03-23T01:26:43;23.30;;;6.10;;
12591;SDS011;6361;52.120;5.108;2024-03-23T01:29:08;26.02;;;6.30;;
12591;SDS011;6361;52.120;5.108;2024-03-23T01:31:33;28.02;;;7.00;;
12591;SDS011;6361;52.120;5.108;2024-03-23T01:33:59;24.20;;;6.75;;
12591;SDS011;6361;52.120;5.108;2024-03-23T01:36:24;31.85;;;6.55;;
12591;SDS011;6361;52.120;5.108;2024-03-23T01:38:50;27.13;;;6.45;;
12591;SDS011;6361;52.120;5.108;2024-03-23T01:41:16;22.80;;;6.25;;
12591;SDS011;6361;52.120;5.108;2024-03-23T01:43:42;27.05;;;6.25;;
12591;SDS011;6361;52.120;5.108;2024-03-23T01:46:08;24.75;;;6.15;;
12591;SDS011;6361;52.120;5.108;2024-03-23T01:48:33;22.80;;;6.28;;
12591;SDS011;6361;52.120;5.108;2024-03-23T01:50:59;20.90;;;6.10;;
12591;SDS011;6361;52.120;5.108;2024-03-23T01:53:24;27.27;;;6.85;;
12591;SDS011;6361;52.120;5.108;2024-03-23T01:55:50;31.45;;;6.68;;
12591;SDS011;6361;52.120;5.108;2024-03-23T01:58:16;29.08;;;6.43;;
12591;SDS011;6361;52.120;5.108;2024-03-23T02:00:41;23.38;;;6.05;;
12591;SDS011;6361;52.120;5.108;2024-03-23T02:03:24;21.05;;;5.80;;
12591;SDS011;6361;52.120;5.108;2024-03-23T02:05:50;22.75;;;6.05;;
12591;SDS011;6361;52.120;5.108;2024-03-23T02:08:23;28.30;;;6.72;;
12591;SDS011;6361;52.120;5.108;2024-03-23T02:10:49;24.15;;;6.22;;
12591;SDS011;6361;52.120;5.108;2024-03-23T02:13:15;23.77;;;6.03;;
12591;SDS011;6361;52.120;5.108;2024-03-23T02:15:41;31.75;;;6.25;;
12591;SDS011;6361;52.120;5.108;2024-03-23T02:18:07;25.17;;;6.22;;
12591;SDS011;6361;52.120;5.108;2024-03-23T02:20:33;28.77;;;7.07;;
12591;SDS011;6361;52.120;5.108;2024-03-23T02:22:59;21.35;;;5.93;;
12591;SDS011;6361;52.120;5.108;2024-03-23T02:25:25;28.85;;;6.75;;
12591;SDS011;6361;52.120;5.108;2024-03-23T02:27:50;24.33;;;6.20;;
12591;SDS011;6361;52.120;5.108;2024-03-23T02:30:15;19.60;;;5.80;;
12591;SDS011;6361;52.120;5.108;2024-03-23T02:32:41;23.30;;;5.88;;
12591;SDS011;6361;52.120;5.108;2024-03-23T02:35:06;19.55;;;5.30;;
12591;SDS011;6361;52.120;5.108;2024-03-23T02:37:32;23.10;;;5.25;;
12591;SDS011;6361;52.120;5.108;2024-03-23T02:39:57;16.42;;;5.10;;
12591;SDS011;6361;52.120;5.108;2024-03-23T02:42:23;23.85;;;5.13;;
12591;SDS011;6361;52.120;5.108;2024-03-23T02:44:48;22.02;;;5.00;;
12591;SDS011;6361;52.120;5.108;2024-03-23T02:47:14;19.65;;;4.63;;
12591;SDS011;6361;52.120;5.108;2024-03-23T02:49:39;27.33;;;5.53;;
12591;SDS011;6361;52.120;5.108;2024-03-23T02:52:04;17.73;;;4.13;;
12591;SDS011;6361;52.120;5.108;2024-03-23T02:54:30;20.88;;;4.53;;
12591;SDS011;6361;52.120;5.108;2024-03-23T02:56:56;13.48;;;4.22;;
12591;SDS011;6361;52.120;5.108;2024-03-23T02:59:21;18.25;;;4.45;;
12591;SDS011;6361;52.120;5.108;2024-03-23T03:01:46;21.00;;;4.55;;
12591;SDS011;6361;52.120;5.108;2024-03-23T03:04:12;16.35;;;4.03;;
12591;SDS011;6361;52.120;5.108;2024-03-23T03:06:37;20.90;;;3.97;;
12591;SDS011;6361;52.120;5.108;2024-03-23T03:09:03;16.55;;;3.90;;
12591;SDS011;6361;52.120;5.108;2024-03-23T03:11:28;21.80;;;4.97;;
12591;SDS011;6361;52.120;5.108;2024-03-23T03:13:53;14.68;;;3.75;;
12591;SDS011;6361;52.120;5.108;2024-03-23T03:16:19;16.17;;;3.80;;
12591;SDS011;6361;52.120;5.108;2024-03-23T03:18:44;14.38;;;3.83;;
12591;SDS011;6361;52.120;5.108;2024-03-23T03:21:11;20.23;;;3.90;;
12591;SDS011;6361;52.120;5.108;2024-03-23T03:23:37;17.88;;;3.92;;
12591;SDS011;6361;52.120;5.108;2024-03-23T03:26:03;22.65;;;4.15;;
12591;SDS011;6361;52.120;5.108;2024-03-23T03:28:29;16.13;;;3.58;;
12591;SDS011;6361;52.120;5.108;2024-03-23T03:30:56;17.88;;;3.70;;
12591;SDS011;6361;52.120;5.108;2024-03-23T03:33:22;18.73;;;3.30;;
12591;SDS011;6361;52.120;5.108;2024-03-23T03:35:47;18.85;;;3.28;;
12591;SDS011;6361;52.120;5.108;2024-03-23T03:38:12;14.35;;;3.33;;
12591;SDS011;6361;52.120;5.108;2024-03-23T03:40:38;19.50;;;3.15;;
12591;SDS011;6361;52.120;5.108;2024-03-23T03:43:03;15.40;;;3.10;;
12591;SDS011;6361;52.120;5.108;2024-03-23T03:45:29;15.93;;;3.10;;
12591;SDS011;6361;52.120;5.108;2024-03-23T03:47:54;15.88;;;3.20;;
12591;SDS011;6361;52.120;5.108;2024-03-23T03:50:21;14.50;;;3.25;;
12591;SDS011;6361;52.120;5.108;2024-03-23T03:52:47;18.17;;;3.13;;
12591;SDS011;6361;52.120;5.108;2024-03-23T03:55:13;14.82;;;2.75;;
12591;SDS011;6361;52.120;5.108;2024-03-23T03:57:39;15.55;;;3.03;;
12591;SDS011;6361;52.120;5.108;2024-03-23T04:00:05;13.13;;;3.00;;
12591;SDS011;6361;52.120;5.108;2024-03-23T04:02:31;13.85;;;2.80;;
12591;SDS011;6361;52.120;5.108;2024-03-23T04:04:56;15.25;;;3.30;;
12591;SDS011;6361;52.120;5.108;2024-03-23T04:07:22;13.35;;;3.22;;
12591;SDS011;6361;52.120;5.108;2024-03-23T04:09:48;15.52;;;2.70;;
12591;SDS011;6361;52.120;5.108;2024-03-23T04:12:14;15.35;;;3.15;;
12591;SDS011;6361;52.120;5.108;2024-03-23T04:14:40;13.32;;;2.97;;
12591;SDS011;6361;52.120;5.108;2024-03-23T04:17:05;19.20;;;3.55;;
12591;SDS011;6361;52.120;5.108;2024-03-23T04:19:31;13.27;;;3.03;;
12591;SDS011;6361;52.120;5.108;2024-03-23T04:21:56;16.10;;;2.65;;
12591;SDS011;6361;52.120;5.108;2024-03-23T04:24:22;16.00;;;2.70;;
12591;SDS011;6361;52.120;5.108;2024-03-23T04:26:47;14.10;;;3.13;;
12591;SDS011;6361;52.120;5.108;2024-03-23T04:29:12;13.40;;;2.63;;
12591;SDS011;6361;52.120;5.108;2024-03-23T04:31:38;11.48;;;2.92;;
12591;SDS011;6361;52.120;5.108;2024-03-23T04:34:03;12.20;;;2.80;;
12591;SDS011;6361;52.120;5.108;2024-03-23T04:36:29;12.93;;;3.13;;
12591;SDS011;6361;52.120;5.108;2024-03-23T04:38:55;15.13;;;2.72;;
12591;SDS011;6361;52.120;5.108;2024-03-23T04:41:21;13.82;;;2.30;;
12591;SDS011;6361;52.120;5.108;2024-03-23T04:43:47;12.60;;;2.60;;
12591;SDS011;6361;52.120;5.108;2024-03-23T04:46:12;12.40;;;2.28;;
12591;SDS011;6361;52.120;5.108;2024-03-23T04:48:37;13.63;;;2.22;;
12591;SDS011;6361;52.120;5.108;2024-03-23T04:51:03;16.15;;;2.45;;
12591;SDS011;6361;52.120;5.108;2024-03-23T04:53:29;14.68;;;2.45;;
12591;SDS011;6361;52.120;5.108;2024-03-23T04:55:57;14.85;;;2.58;;
12591;SDS011;6361;52.120;5.108;2024-03-23T04:58:24;12.65;;;2.40;;
12591;SDS011;6361;52.120;5.108;2024-03-23T05:00:56;15.23;;;2.40;;
12591;SDS011;6361;52.120;5.108;2024-03-23T05:03:22;11.82;;;2.20;;
12591;SDS011;6361;52.120;5.108;2024-03-23T05:05:48;14.00;;;2.60;;
12591;SDS011;6361;52.120;5.108;2024-03-23T05:08:14;15.23;;;2.42;;
12591;SDS011;6361;52.120;5.108;2024-03-23T05:10:43;14.80;;;2.38;;
12591;SDS011;6361;52.120;5.108;2024-03-23T05:13:08;10.82;;;1.98;;
12591;SDS011;6361;52.120;5.108;2024-03-23T05:15:34;10.50;;;2.20;;
12591;SDS011;6361;52.120;5.108;2024-03-23T05:18:00;13.45;;;2.60;;
12591;SDS011;6361;52.120;5.108;2024-03-23T05:20:25;10.82;;;2.17;;
12591;SDS011;6361;52.120;5.108;2024-03-23T05:22:50;12.75;;;2.53;;
12591;SDS011;6361;52.120;5.108;2024-03-23T05:25:16;16.02;;;2.20;;
12591;SDS011;6361;52.120;5.108;2024-03-23T05:27:41;12.88;;;2.58;;
12591;SDS011;6361;52.120;5.108;2024-03-23T05:30:07;13.32;;;2.00;;
12591;SDS011;6361;52.120;5.108;2024-03-23T05:32:33;13.00;;;2.30;;
12591;SDS011;6361;52.120;5.108;2024-03-23T05:34:58;12.43;;;2.42;;
12591;SDS011;6361;52.120;5.108;2024-03-23T05:37:24;7.50;;;1.90;;
12591;SDS011;6361;52.120;5.108;2024-03-23T05:39:49;10.50;;;2.10;;
12591;SDS011;6361;52.120;5.108;2024-03-23T05:42:15;20.08;;;2.70;;
12591;SDS011;6361;52.120;5.108;2024-03-23T05:44:42;12.90;;;2.75;;
12591;SDS011;6361;52.120;5.108;2024-03-23T05:47:11;18.35;;;2.42;;
12591;SDS011;6361;52.120;5.108;2024-03-23T05:49:41;11.73;;;2.30;;
12591;SDS011;6361;52.120;5.108;2024-03-23T05:52:07;8.73;;;2.00;;
12591;SDS011;6361;52.120;5.108;2024-03-23T05:54:35;11.02;;;2.35;;
12591;SDS011;6361;52.120;5.108;2024-03-23T05:57:01;15.50;;;2.30;;
12591;SDS011;6361;52.120;5.108;2024-03-23T05:59:27;12.35;;;2.00;;
12591;SDS011;6361;52.120;5.108;2024-03-23T06:01:52;14.93;;;2.42;;
12591;SDS011;6361;52.120;5.108;2024-03-23T06:04:18;15.90;;;2.63;;
12591;SDS011;6361;52.120;5.108;2024-03-23T06:06:43;14.20;;;2.70;;
12591;SDS011;6361;52.120;5.108;2024-03-23T06:09:09;14.52;;;2.72;;
12591;SDS011;6361;52.120;5.108;2024-03-23T06:11:34;11.27;;;2.30;;
12591;SDS011;6361;52.120;5.108;2024-03-23T06:13:59;12.88;;;2.28;;
12591;SDS011;6361;52.120;5.108;2024-03-23T06:16:25;11.88;;;2.13;;
12591;SDS011;6361;52.120;5.108;2024-03-23T06:18:52;13.68;;;2.47;;
12591;SDS011;6361;52.120;5.108;2024-03-23T06:21:17;14.65;;;3.13;;
12591;SDS011;6361;52.120;5.108;2024-03-23T06:23:43;11.13;;;2.00;;
12591;SDS011;6361;52.120;5.108;2024-03-23T06:26:13;15.15;;;2.83;;
12591;SDS011;6361;52.120;5.108;2024-03-23T06:28:38;18.75;;;2.70;;
12591;SDS011;6361;52.120;5.108;2024-03-23T06:31:08;13.70;;;2.63;;
12591;SDS011;6361;52.120;5.108;2024-03-23T06:33:34;16.00;;;3.08;;
12591;SDS011;6361;52.120;5.108;2024-03-23T06:35:59;15.50;;;3.17;;
12591;SDS011;6361;52.120;5.108;2024-03-23T06:38:25;16.98;;;2.97;;
12591;SDS011;6361;52.120;5.108;2024-03-23T06:40:50;19.50;;;2.88;;
12591;SDS011;6361;52.120;5.108;2024-03-23T06:43:17;14.32;;;2.97;;
12591;SDS011;6361;52.120;5.108;2024-03-23T06:45:43;15.50;;;2.97;;
12591;SDS011;6361;52.120;5.108;2024-03-23T06:48:09;14.90;;;3.05;;
12591;SDS011;6361;52.120;5.108;2024-03-23T06:50:34;15.93;;;3.28;;
12591;SDS011;6361;52.120;5.108;2024-03-23T06:52:59;12.05;;;3.03;;
12591;SDS011;6361;52.120;5.108;2024-03-23T06:55:26;21.05;;;4.00;;
12591;SDS011;6361;52.120;5.108;2024-03-23T06:57:52;15.75;;;3.80;;
12591;SDS011;6361;52.120;5.108;2024-03-23T07:00:18;13.75;;;3.60;;
12591;SDS011;6361;52.120;5.108;2024-03-23T07:02:43;11.82;;;3.50;;
12591;SDS011;6361;52.120;5.108;2024-03-23T07:05:11;13.65;;;4.00;;
12591;SDS011;6361;52.120;5.108;2024-03-23T07:07:37;14.32;;;3.95;;
12591;SDS011;6361;52.120;5.108;2024-03-23T07:10:03;14.48;;;3.63;;
12591;SDS011;6361;52.120;5.108;2024-03-23T07:12:30;13.07;;;3.53;;
12591;SDS011;6361;52.120;5.108;2024-03-23T07:14:55;16.75;;;3.83;;
12591;SDS011;6361;52.120;5.108;2024-03-23T07:17:20;9.50;;;3.15;;
12591;SDS011;6361;52.120;5.108;2024-03-23T07:19:46;15.43;;;3.30;;
12591;SDS011;6361;52.120;5.108;2024-03-23T07:22:11;19.25;;;3.30;;
12591;SDS011;6361;52.120;5.108;2024-03-23T07:24:38;16.63;;;3.33;;
12591;SDS011;6361;52.120;5.108;2024-03-23T07:27:04;13.73;;;3.75;;
12591;SDS011;6361;52.120;5.108;2024-03-23T07:29:30;11.13;;;3.20;;
12591;SDS011;6361;52.120;5.108;2024-03-23T07:31:55;10.90;;;2.83;;
12591;SDS011;6361;52.120;5.108;2024-03-23T07:34:20;14.57;;;3.33;;
12591;SDS011;6361;52.120;5.108;2024-03-23T07:36:46;11.20;;;2.75;;
12591;SDS011;6361;52.120;5.108;2024-03-23T07:39:11;11.13;;;2.75;;
12591;SDS011;6361;52.120;5.108;2024-03-23T07:41:37;10.95;;;2.45;;
12591;SDS011;6361;52.120;5.108;2024-03-23T07:44:02;12.70;;;2.58;;
12591;SDS011;6361;52.120;5.108;2024-03-23T07:46:27;11.75;;;2.50;;
12591;SDS011;6361;52.120;5.108;2024-03-23T07:48:53;11.15;;;2.40;;
12591;SDS011;6361;52.120;5.108;2024-03-23T07:51:20;13.73;;;2.72;;
12591;SDS011;6361;52.120;5.108;2024-03-23T07:53:47;18.45;;;3.35;;
12591;SDS011;6361;52.120;5.108;2024-03-23T07:56:13;14.10;;;2.72;;
12591;SDS011;6361;52.120;5.108;2024-03-23T07:58:40;13.38;;;2.75;;
12591;SDS011;6361;52.120;5.108;2024-03-23T08:01:06;9.32;;;2.58;;
12591;SDS011;6361;52.120;5.108;2024-03-23T08:03:38;13.90;;;2.83;;
12591;SDS011;6361;52.120;5.108;2024-03-23T08:08:34;9.50;;;2.50;;
12591;SDS011;6361;52.120;5.108;2024-03-23T08:10:59;10.00;;;2.60;;
12591;SDS011;6361;52.120;5.108;2024-03-23T08:13:25;15.52;;;2.63;;
12591;SDS011;6361;52.120;5.108;2024-03-23T08:15:50;12.95;;;2.38;;
12591;SDS011;6361;52.120;5.108;2024-03-23T08:18:15;9.50;;;2.25;;
12591;SDS011;6361;52.120;5.108;2024-03-23T08:20:41;7.55;;;2.33;;
12591;SDS011;6361;52.120;5.108;2024-03-23T08:23:06;13.88;;;2.40;;
12591;SDS011;6361;52.120;5.108;2024-03-23T08:25:32;15.63;;;2.78;;
12591;SDS011;6361;52.120;5.108;2024-03-23T08:27:58;10.00;;;2.13;;
12591;SDS011;6361;52.120;5.108;2024-03-23T08:30:23;13.18;;;2.47;;
12591;SDS011;6361;52.120;5.108;2024-03-23T08:32:49;14.13;;;2.35;;
12591;SDS011;6361;52.120;5.108;2024-03-23T08:35:14;13.35;;;2.10;;
12591;SDS011;6361;52.120;5.108;2024-03-23T08:37:40;10.18;;;2.40;;
12591;SDS011;6361;52.120;5.108;2024-03-23T08:40:06;6.70;;;1.95;;
12591;SDS011;6361;52.120;5.108;2024-03-23T08:42:31;13.07;;;2.45;;
12591;SDS011;6361;52.120;5.108;2024-03-23T08:44:57;11.23;;;2.63;;
12591;SDS011;6361;52.120;5.108;2024-03-23T08:47:22;12.40;;;2.55;;
12591;SDS011;6361;52.120;5.108;2024-03-23T08:49:47;12.45;;;2.15;;
12591;SDS011;6361;52.120;5.108;2024-03-23T08:52:13;16.45;;;2.45;;
12591;SDS011;6361;52.120;5.108;2024-03-23T08:54:40;11.93;;;2.17;;
12591;SDS011;6361;52.120;5.108;2024-03-23T08:57:06;11.85;;;2.33;;
12591;SDS011;6361;52.120;5.108;2024-03-23T08:59:33;8.98;;;2.03;;
12591;SDS011;6361;52.120;5.108;2024-03-23T09:01:58;9.50;;;2.08;;
12591;SDS011;6361;52.120;5.108;2024-03-23T09:04:23;10.60;;;2.05;;
12591;SDS011;6361;52.120;5.108;2024-03-23T09:06:49;11.68;;;2.47;;
12591;SDS011;6361;52.120;5.108;2024-03-23T09:09:15;9.45;;;2.13;;
12591;SDS011;6361;52.120;5.108;2024-03-23T09:11:40;13.98;;;2.55;;
12591;SDS011;6361;52.120;5.108;2024-03-23T09:14:05;8.35;;;2.17;;
12591;SDS011;6361;52.120;5.108;2024-03-23T09:16:31;9.80;;;2.60;;
12591;SDS011;6361;52.120;5.108;2024-03-23T09:18:56;17.80;;;2.65;;
12591;SDS011;6361;52.120;5.108;2024-03-23T09:21:21;16.05;;;2.88;;
12591;SDS011;6361;52.120;5.108;2024-03-23T09:23:47;12.05;;;2.70;;
12591;SDS011;6361;52.120;5.108;2024-03-23T09:26:12;11.43;;;2.40;;
12591;SDS011;6361;52.120;5.108;2024-03-23T09:28:38;13.73;;;2.80;;
12591;SDS011;6361;52.120;5.108;2024-03-23T09:31:07;13.63;;;2.40;;
12591;SDS011;6361;52.120;5.108;2024-03-23T09:33:33;15.20;;;3.17;;
12591;SDS011;6361;52.120;5.108;2024-03-23T09:36:02;15.40;;;2.88;;
12591;SDS011;6361;52.120;5.108;2024-03-23T09:38:28;16.45;;;2.90;;
12591;SDS011;6361;52.120;5.108;2024-03-23T09:40:54;15.55;;;3.33;;
12591;SDS011;6361;52.120;5.108;2024-03-23T09:43:19;10.38;;;2.50;;
12591;SDS011;6361;52.120;5.108;2024-03-23T09:45:45;9.45;;;2.10;;
12591;SDS011;6361;52.120;5.108;2024-03-23T09:48:11;9.95;;;2.50;;
12591;SDS011;6361;52.120;5.108;2024-03-23T09:50:37;13.40;;;2.75;;
12591;SDS011;6361;52.120;5.108;2024-03-23T09:53:06;17.65;;;2.30;;
12591;SDS011;6361;52.120;5.108;2024-03-23T09:55:32;11.60;;;2.65;;
12591;SDS011;6361;52.120;5.108;2024-03-23T09:57:59;13.18;;;2.25;;
12591;SDS011;6361;52.120;5.108;2024-03-23T10:00:24;13.18;;;2.13;;
12591;SDS011;6361;52.120;5.108;2024-03-23T10:02:50;13.40;;;2.30;;
12591;SDS011;6361;52.120;5.108;2024-03-23T10:05:22;13.73;;;2.15;;
12591;SDS011;6361;52.120;5.108;2024-03-23T10:07:51;10.57;;;2.30;;
12591;SDS011;6361;52.120;5.108;2024-03-23T10:10:16;14.40;;;2.42;;
12591;SDS011;6361;52.120;5.108;2024-03-23T10:12:45;13.55;;;2.30;;
12591;SDS011;6361;52.120;5.108;2024-03-23T10:15:18;12.43;;;2.60;;
12591;SDS011;6361;52.120;5.108;2024-03-23T10:17:47;14.98;;;2.47;;
12591;SDS011;6361;52.120;5.108;2024-03-23T10:20:13;9.55;;;1.90;;
12591;SDS011;6361;52.120;5.108;2024-03-23T10:22:42;13.93;;;2.28;;
12591;SDS011;6361;52.120;5.108;2024-03-23T10:25:09;14.18;;;2.50;;
12591;SDS011;6361;52.120;5.108;2024-03-23T10:27:35;11.23;;;2.15;;
12591;SDS011;6361;52.120;5.108;2024-03-23T10:30:07;13.73;;;1.83;;
12591;SDS011;6361;52.120;5.108;2024-03-23T10:32:37;12.73;;;1.90;;
12591;SDS011;6361;52.120;5.108;2024-03-23T10:35:19;5.22;;;1.58;;
12591;SDS011;6361;52.120;5.108;2024-03-23T10:37:47;7.30;;;1.85;;
12591;SDS011;6361;52.120;5.108;2024-03-23T10:40:14;8.00;;;1.63;;
12591;SDS011;6361;52.120;5.108;2024-03-23T10:42:40;8.00;;;1.42;;
12591;SDS011;6361;52.120;5.108;2024-03-23T10:45:06;10.02;;;1.65;;
12591;SDS011;6361;52.120;5.108;2024-03-23T10:47:32;11.38;;;2.20;;
12591;SDS011;6361;52.120;5.108;2024-03-23T10:49:58;10.43;;;2.35;;
12591;SDS011;6361;52.120;5.108;2024-03-23T10:52:24;10.13;;;2.15;;
12591;SDS011;6361;52.120;5.108;2024-03-23T10:54:50;8.85;;;2.30;;
12591;SDS011;6361;52.120;5.108;2024-03-23T10:57:20;10.32;;;2.20;;
12591;SDS011;6361;52.120;5.108;2024-03-23T10:59:52;12.48;;;1.98;;
12591;SDS011;6361;52.120;5.108;2024-03-23T11:02:20;12.07;;;2.00;;
12591;SDS011;6361;52.120;5.108;2024-03-23T11:04:46;6.22;;;1.30;;
12591;SDS011;6361;52.120;5.108;2024-03-23T11:07:29;8.63;;;1.98;;
12591;SDS011;6361;52.120;5.108;2024-03-23T11:09:55;14.55;;;2.38;;
12591;SDS011;6361;52.120;5.108;2024-03-23T11:17:26;12.20;;;2.08;;
12591;SDS011;6361;52.120;5.108;2024-03-23T11:19:58;10.02;;;1.65;;
12591;SDS011;6361;52.120;5.108;2024-03-23T11:25:02;9.90;;;2.08;;
12591;SDS011;6361;52.120;5.108;2024-03-23T11:27:28;12.45;;;2.42;;
12591;SDS011;6361;52.120;5.108;2024-03-23T11:29:53;11.35;;;2.28;;
12591;SDS011;6361;52.120;5.108;2024-03-23T11:32:19;13.48;;;2.22;;
12591;SDS011;6361;52.120;5.108;2024-03-23T11:34:44;11.70;;;2.10;;
12591;SDS011;6361;52.120;5.108;2024-03-23T11:37:09;10.68;;;2.10;;
12591;SDS011;6361;52.120;5.108;2024-03-23T11:39:35;8.45;;;2.05;;
12591;SDS011;6361;52.120;5.108;2024-03-23T11:42:00;8.57;;;2.20;;
12591;SDS011;6361;52.120;5.108;2024-03-23T11:44:26;10.05;;;2.10;;
12591;SDS011;6361;52.120;5.108;2024-03-23T11:46:52;11.32;;;1.70;;
12591;SDS011;6361;52.120;5.108;2024-03-23T11:49:24;10.10;;;2.00;;
12591;SDS011;6361;52.120;5.108;2024-03-23T11:51:51;13.45;;;2.17;;
12591;SDS011;6361;52.120;5.108;2024-03-23T11:54:19;9.80;;;1.92;;
12591;SDS011;6361;52.120;5.108;2024-03-23T11:56:59;11.32;;;2.08;;
12591;SDS011;6361;52.120;5.108;2024-03-23T11:59:38;10.93;;;2.08;;
12591;SDS011;6361;52.120;5.108;2024-03-23T12:02:14;12.25;;;2.10;;
12591;SDS011;6361;52.120;5.108;2024-03-23T12:04:43;10.13;;;2.00;;
12591;SDS011;6361;52.120;5.108;2024-03-23T12:07:26;12.57;;;2.15;;
12591;SDS011;6361;52.120;5.108;2024-03-23T12:10:04;13.63;;;2.17;;
12591;SDS011;6361;52.120;5.108;2024-03-23T12:12:31;12.95;;;2.13;;
12591;SDS011;6361;52.120;5.108;2024-03-23T12:15:14;15.10;;;1.77;;
12591;SDS011;6361;52.120;5.108;2024-03-23T12:17:40;10.55;;;2.55;;
12591;SDS011;6361;52.120;5.108;2024-03-23T12:20:05;10.10;;;2.05;;
12591;SDS011;6361;52.120;5.108;2024-03-23T12:22:32;12.20;;;2.65;;
12591;SDS011;6361;52.120;5.108;2024-03-23T12:24:59;6.07;;;1.65;;
12591;SDS011;6361;52.120;5.108;2024-03-23T12:27:24;10.48;;;2.08;;
12591;SDS011;6361;52.120;5.108;2024-03-23T12:29:50;8.95;;;2.00;;
12591;SDS011;6361;52.120;5.108;2024-03-23T12:32:15;11.55;;;1.80;;
12591;SDS011;6361;52.120;5.108;2024-03-23T12:34:41;6.50;;;1.77;;
12591;SDS011;6361;52.120;5.108;2024-03-23T12:37:07;8.50;;;1.95;;
12591;SDS011;6361;52.120;5.108;2024-03-23T12:39:32;12.68;;;1.92;;
12591;SDS011;6361;52.120;5.108;2024-03-23T12:41:58;14.35;;;2.58;;
12591;SDS011;6361;52.120;5.108;2024-03-23T12:44:23;11.27;;;1.90;;
12591;SDS011;6361;52.120;5.108;2024-03-23T12:46:49;8.90;;;2.03;;
12591;SDS011;6361;52.120;5.108;2024-03-23T12:49:14;11.38;;;1.90;;
12591;SDS011;6361;52.120;5.108;2024-03-23T12:51:42;12.00;;;1.98;;
12591;SDS011;6361;52.120;5.108;2024-03-23T12:54:13;11.32;;;2.05;;
12591;SDS011;6361;52.120;5.108;2024-03-23T12:56:38;12.27;;;1.73;;
12591;SDS011;6361;52.120;5.108;2024-03-23T12:59:04;11.88;;;1.98;;
12591;SDS011;6361;52.120;5.108;2024-03-23T13:01:29;9.68;;;1.80;;
12591;SDS011;6361;52.120;5.108;2024-03-23T13:03:54;5.50;;;1.17;;
12591;SDS011;6361;52.120;5.108;2024-03-23T13:06:20;9.35;;;1.50;;
12591;SDS011;6361;52.120;5.108;2024-03-23T13:08:45;4.10;;;1.05;;
12591;SDS011;6361;52.120;5.108;2024-03-23T13:11:11;6.10;;;1.30;;
12591;SDS011;6361;52.120;5.108;2024-03-23T13:13:38;4.85;;;1.33;;
12591;SDS011;6361;52.120;5.108;2024-03-23T13:16:03;7.28;;;1.35;;
12591;SDS011;6361;52.120;5.108;2024-03-23T13:18:30;5.82;;;1.40;;
12591;SDS011;6361;52.120;5.108;2024-03-23T13:20:56;5.30;;;1.30;;
12591;SDS011;6361;52.120;5.108;2024-03-23T13:23:21;6.13;;;1.60;;
12591;SDS011;6361;52.120;5.108;2024-03-23T13:25:54;5.85;;;1.50;;
12591;SDS011;6361;52.120;5.108;2024-03-23T13:28:21;7.53;;;1.50;;
12591;SDS011;6361;52.120;5.108;2024-03-23T13:30:56;7.13;;;1.35;;
12591;SDS011;6361;52.120;5.108;2024-03-23T13:33:28;11.60;;;1.85;;
12591;SDS011;6361;52.120;5.108;2024-03-23T13:35:54;11.43;;;2.20;;
12591;SDS011;6361;52.120;5.108;2024-03-23T13:38:22;11.45;;;2.13;;
12591;SDS011;6361;52.120;5.108;2024-03-23T13:40:51;8.35;;;2.00;;
12591;SDS011;6361;52.120;5.108;2024-03-23T13:43:23;9.63;;;2.00;;
12591;SDS011;6361;52.120;5.108;2024-03-23T13:45:53;10.70;;;1.70;;
12591;SDS011;6361;52.120;5.108;2024-03-23T13:48:23;9.07;;;2.00;;
12591;SDS011;6361;52.120;5.108;2024-03-23T13:50:59;12.82;;;2.08;;
12591;SDS011;6361;52.120;5.108;2024-03-23T13:53:25;9.60;;;1.83;;
12591;SDS011;6361;52.120;5.108;2024-03-23T13:55:50;14.00;;;2.53;;
12591;SDS011;6361;52.120;5.108;2024-03-23T13:58:16;8.57;;;1.95;;
12591;SDS011;6361;52.120;5.108;2024-03-23T14:00:41;8.25;;;2.03;;
12591;SDS011;6361;52.120;5.108;2024-03-23T14:03:10;9.30;;;1.90;;
12591;SDS011;6361;52.120;5.108;2024-03-23T14:05:36;6.75;;;2.10;;
12591;SDS011;6361;52.120;5.108;2024-03-23T14:08:04;12.32;;;2.22;;
12591;SDS011;6361;52.120;5.108;2024-03-23T14:10:30;11.65;;;2.40;;
12591;SDS011;6361;52.120;5.108;2024-03-23T14:12:55;7.57;;;1.90;;
12591;SDS011;6361;52.120;5.108;2024-03-23T14:15:20;7.97;;;1.52;;
12591;SDS011;6361;52.120;5.108;2024-03-23T14:17:46;7.53;;;1.75;;
12591;SDS011;6361;52.120;5.108;2024-03-23T14:20:11;6.50;;;1.40;;
12591;SDS011;6361;52.120;5.108;2024-03-23T14:22:38;8.80;;;1.50;;
12591;SDS011;6361;52.120;5.108;2024-03-23T14:25:06;5.82;;;1.60;;
12591;SDS011;6361;52.120;5.108;2024-03-23T14:27:32;14.35;;;1.88;;
12591;SDS011;6361;52.120;5.108;2024-03-23T14:29:57;7.15;;;1.33;;
12591;SDS011;6361;52.120;5.108;2024-03-23T14:32:22;7.82;;;1.40;;
12591;SDS011;6361;52.120;5.108;2024-03-23T14:34:47;9.20;;;2.08;;
12591;SDS011;6361;52.120;5.108;2024-03-23T14:37:13;7.53;;;1.88;;
12591;SDS011;6361;52.120;5.108;2024-03-23T14:39:40;9.85;;;1.85;;
12591;SDS011;6361;52.120;5.108;2024-03-23T14:42:06;10.13;;;1.90;;
12591;SDS011;6361;52.120;5.108;2024-03-23T14:44:33;7.28;;;1.58;;
12591;SDS011;6361;52.120;5.108;2024-03-23T14:46:59;6.70;;;1.23;;
12591;SDS011;6361;52.120;5.108;2024-03-23T14:49:24;7.07;;;1.35;;
12591;SDS011;6361;52.120;5.108;2024-03-23T14:51:49;7.70;;;1.55;;
12591;SDS011;6361;52.120;5.108;2024-03-23T14:54:15;5.07;;;1.40;;
12591;SDS011;6361;52.120;5.108;2024-03-23T14:56:40;7.75;;;1.40;;
12591;SDS011;6361;52.120;5.108;2024-03-23T14:59:06;12.13;;;1.52;;
12591;SDS011;6361;52.120;5.108;2024-03-23T15:01:32;5.97;;;1.65;;
12591;SDS011;6361;52.120;5.108;2024-03-23T15:03:57;7.47;;;1.60;;
12591;SDS011;6361;52.120;5.108;2024-03-23T15:06:23;6.90;;;1.50;;
12591;SDS011;6361;52.120;5.108;2024-03-23T15:08:48;7.78;;;1.38;;
12591;SDS011;6361;52.120;5.108;2024-03-23T15:11:14;7.60;;;1.60;;
12591;SDS011;6361;52.120;5.108;2024-03-23T15:13:39;6.88;;;1.70;;
12591;SDS011;6361;52.120;5.108;2024-03-23T15:16:05;9.77;;;1.77;;
12591;SDS011;6361;52.120;5.108;2024-03-23T15:18:31;8.90;;;1.63;;
12591;SDS011;6361;52.120;5.108;2024-03-23T15:20:58;8.65;;;1.50;;
12591;SDS011;6361;52.120;5.108;2024-03-23T15:23:27;7.32;;;1.63;;
12591;SDS011;6361;52.120;5.108;2024-03-23T15:26:00;5.10;;;1.40;;
12591;SDS011;6361;52.120;5.108;2024-03-23T15:28:26;5.43;;;1.67;;
12591;SDS011;6361;52.120;5.108;2024-03-23T15:31:02;9.13;;;2.20;;
12591;SDS011;6361;52.120;5.108;2024-03-23T15:33:29;9.55;;;1.60;;
12591;SDS011;6361;52.120;5.108;2024-03-23T15:35:58;8.32;;;2.10;;
12591;SDS011;6361;52.120;5.108;2024-03-23T15:38:24;8.35;;;2.20;;
12591;SDS011;6361;52.120;5.108;2024-03-23T15:40:52;8.65;;;2.00;;
12591;SDS011;6361;52.120;5.108;2024-03-23T15:43:18;8.63;;;1.70;;
12591;SDS011;6361;52.120;5.108;2024-03-23T15:45:44;7.60;;;1.70;;
12591;SDS011;6361;52.120;5.108;2024-03-23T15:48:09;7.55;;;1.80;;